createdAt,value
2023-04-13T00:00:48.062Z,4.82
2023-04-13T00:03:21.649Z,4.74
2023-04-13T00:05:53.079Z,4.65
2023-04-13T00:08:23.165Z,4.54
2023-04-13T00:10:51.650Z,4.52
2023-04-13T00:13:19.275Z,4.51
2023-04-13T00:15:47.700Z,4.45
2023-04-13T00:18:15.464Z,4.42
2023-04-13T00:20:43.744Z,4.40
2023-04-13T00:23:11.858Z,4.30
2023-04-13T00:25:39.792Z,4.26
2023-04-13T00:28:07.917Z,4.21
2023-04-13T00:30:36.334Z,4.28
2023-04-13T00:33:06.060Z,4.18
2023-04-13T00:35:34.265Z,4.13
2023-04-13T00:38:04.777Z,4.08
2023-04-13T00:40:33.189Z,4.08
2023-04-13T00:43:02.336Z,4.10
2023-04-13T00:45:30.759Z,4.05
2023-04-13T00:48:00.108Z,4.02
2023-04-13T00:50:28.516Z,3.98
2023-04-13T00:52:58.034Z,3.93
2023-04-13T00:55:27.912Z,3.91
2023-04-13T00:57:55.765Z,3.86
2023-04-13T01:00:25.794Z,3.79
2023-04-13T01:02:55.865Z,3.80
2023-04-13T01:05:26.794Z,3.77
2023-04-13T01:07:59.401Z,3.71
2023-04-13T01:10:56.001Z,3.67
2023-04-13T01:13:42.276Z,3.64
2023-04-13T01:16:28.211Z,3.68
2023-04-13T01:18:57.284Z,3.61
2023-04-13T01:21:29.868Z,3.58
2023-04-13T01:24:21.785Z,3.62
2023-04-13T01:27:15.077Z,3.59
2023-04-13T01:29:46.795Z,3.56
2023-04-13T01:32:17.318Z,3.57
2023-04-13T01:34:46.108Z,3.57
2023-04-13T01:37:14.435Z,3.54
2023-04-13T01:39:42.444Z,3.49
2023-04-13T01:42:21.488Z,3.35
2023-04-13T01:44:51.519Z,3.32
2023-04-13T01:47:22.820Z,3.23
2023-04-13T01:50:29.771Z,3.17
2023-04-13T01:53:11.368Z,3.19
2023-04-13T01:55:44.788Z,3.15
2023-04-13T01:58:15.606Z,3.15
2023-04-13T02:00:48.183Z,3.20
2023-04-13T02:03:16.582Z,3.10
2023-04-13T02:05:44.841Z,3.07
2023-04-13T02:08:14.008Z,3.04
2023-04-13T02:10:46.963Z,3.12
2023-04-13T02:13:15.046Z,3.16
2023-04-13T02:15:43.408Z,3.05
2023-04-13T02:18:11.466Z,2.99
2023-04-13T02:20:43.784Z,2.98
2023-04-13T02:23:15.125Z,2.92
2023-04-13T02:25:47.915Z,2.93
2023-04-13T02:28:18.348Z,2.90
2023-04-13T02:30:47.315Z,3.04
2023-04-13T02:33:15.335Z,3.00
2023-04-13T02:35:43.686Z,3.05
2023-04-13T02:38:11.800Z,3.07
2023-04-13T02:40:44.007Z,3.03
2023-04-13T02:43:12.933Z,2.94
2023-04-13T02:45:42.828Z,2.86
2023-04-13T02:48:14.448Z,2.78
2023-04-13T02:50:42.812Z,3.03
2023-04-13T02:53:18.387Z,3.40
2023-04-13T02:55:53.764Z,3.48
2023-04-13T02:58:23.728Z,3.44
2023-04-13T03:00:58.749Z,3.21
2023-04-13T03:03:27.092Z,2.92
2023-04-13T03:05:54.834Z,2.91
2023-04-13T03:08:28.509Z,2.78
2023-04-13T03:11:20.589Z,2.64
2023-04-13T03:13:58.570Z,2.60
2023-04-13T03:16:28.284Z,2.64
2023-04-13T03:18:58.234Z,2.62
2023-04-13T03:21:27.080Z,2.72
2023-04-13T03:24:06.753Z,2.74
2023-04-13T03:26:34.615Z,2.53
2023-04-13T03:29:06.190Z,2.53
2023-04-13T03:31:39.234Z,2.50
2023-04-13T03:34:07.805Z,2.41
2023-04-13T03:36:36.910Z,2.36
2023-04-13T03:39:05.590Z,2.37
2023-04-13T03:41:36.387Z,2.32
2023-04-13T03:44:05.942Z,2.26
2023-04-13T03:46:37.459Z,2.31
2023-04-13T03:49:13.904Z,2.37
2023-04-13T03:51:41.739Z,2.44
2023-04-13T03:54:09.637Z,2.59
2023-04-13T03:56:37.568Z,2.76
2023-04-13T03:59:06.603Z,2.93
2023-04-13T04:01:34.333Z,3.15
2023-04-13T04:04:02.436Z,3.29
2023-04-13T04:06:31.360Z,3.41
2023-04-13T04:09:19.683Z,3.63
2023-04-13T04:11:48.679Z,3.64
2023-04-13T04:14:23.762Z,3.75
2023-04-13T04:16:58.489Z,3.84
2023-04-13T04:19:26.494Z,4.01
2023-04-13T04:21:57.804Z,4.12
2023-04-13T04:24:29.838Z,4.17
2023-04-13T04:27:00.471Z,4.31
2023-04-13T04:29:34.500Z,4.48
2023-04-13T04:32:28.331Z,4.75
2023-04-13T04:34:57.368Z,4.91
2023-04-13T04:37:26.615Z,4.97
2023-04-13T04:40:09.783Z,5.16
2023-04-13T04:42:38.838Z,5.39
2023-04-13T04:45:15.124Z,5.44
2023-04-13T04:47:45.261Z,5.63
2023-04-13T04:50:20.304Z,5.78
2023-04-13T04:52:54.307Z,5.92
2023-04-13T04:55:25.001Z,6.00
2023-04-13T04:57:52.977Z,6.23
2023-04-13T05:00:26.507Z,6.45
2023-04-13T05:03:02.839Z,6.69
2023-04-13T05:05:31.144Z,6.86
2023-04-13T05:08:04.922Z,7.13
2023-04-13T05:10:35.147Z,7.46
2023-04-13T05:13:03.769Z,7.64
2023-04-13T05:15:31.956Z,7.86
2023-04-13T05:17:59.935Z,8.04
2023-04-13T05:20:30.178Z,8.16
2023-04-13T05:23:03.198Z,8.06
2023-04-13T05:25:32.276Z,8.28
2023-04-13T05:28:05.357Z,8.32
2023-04-13T05:30:34.175Z,8.31
2023-04-13T05:33:05.635Z,8.51
2023-04-13T05:35:37.543Z,8.69
2023-04-13T05:38:07.112Z,9.17
2023-04-13T05:40:36.467Z,9.44
2023-04-13T05:43:06.440Z,9.75
2023-04-13T05:45:39.635Z,10.24
2023-04-13T05:48:12.491Z,10.51
2023-04-13T05:50:43.775Z,10.69
2023-04-13T05:53:12.776Z,10.66
2023-04-13T05:55:54.320Z,10.67
2023-04-13T05:58:22.217Z,10.78
2023-04-13T06:00:57.315Z,10.89
2023-04-13T06:03:30.720Z,11.37
2023-04-13T06:05:59.482Z,11.84
2023-04-13T06:08:32.685Z,12.08
2023-04-13T06:11:01.695Z,12.39
2023-04-13T06:13:30.287Z,12.90
2023-04-13T06:15:58.511Z,12.89
2023-04-13T06:18:29.208Z,13.46
2023-04-13T06:20:59.207Z,14.50
2023-04-13T06:23:26.872Z,16.15
2023-04-13T06:25:59.180Z,17.73
2023-04-13T06:28:43.084Z,18.54
2023-04-13T06:31:13.965Z,18.72
2023-04-13T06:33:43.391Z,19.24
2023-04-13T06:36:12.101Z,19.67
2023-04-13T06:38:40.681Z,19.57
2023-04-13T06:41:14.774Z,18.64
2023-04-13T06:43:45.330Z,18.11
2023-04-13T06:46:20.194Z,17.95
2023-04-13T06:48:50.825Z,17.71
2023-04-13T06:51:22.956Z,17.96
2023-04-13T06:53:53.525Z,18.44
2023-04-13T06:56:21.634Z,19.12
2023-04-13T06:58:50.039Z,19.36
2023-04-13T07:01:18.050Z,18.46
2023-04-13T07:03:47.144Z,18.52
2023-04-13T07:06:17.009Z,18.61
2023-04-13T07:08:44.693Z,18.52
2023-04-13T07:11:13.507Z,18.48
2023-04-13T07:13:42.920Z,18.83
2023-04-13T07:16:12.706Z,18.93
2023-04-13T07:18:44.118Z,19.37
2023-04-13T07:21:12.132Z,20.07
2023-04-13T07:23:55.458Z,20.60
2023-04-13T07:26:24.428Z,21.33
2023-04-13T07:28:52.080Z,22.50
2023-04-13T07:31:22.839Z,24.21
2023-04-13T07:33:52.907Z,25.39
2023-04-13T07:36:26.530Z,25.92
2023-04-13T07:38:58.112Z,26.17
2023-04-13T07:41:26.831Z,27.20
2023-04-13T07:43:59.534Z,28.28
2023-04-13T07:46:28.107Z,28.99
2023-04-13T07:48:57.025Z,29.45
2023-04-13T07:51:30.818Z,29.39
2023-04-13T07:53:58.595Z,30.32
2023-04-13T07:56:31.109Z,30.38
2023-04-13T07:59:00.799Z,29.91
2023-04-13T08:01:29.315Z,29.84
2023-04-13T08:04:01.966Z,30.72
2023-04-13T08:06:30.233Z,31.69
2023-04-13T08:08:58.398Z,31.64
2023-04-13T08:11:27.115Z,32.44
2023-04-13T08:14:02.066Z,33.13
2023-04-13T08:16:34.412Z,32.93
2023-04-13T08:19:05.035Z,31.96
2023-04-13T08:21:38.654Z,31.26
2023-04-13T08:24:06.615Z,31.03
2023-04-13T08:26:34.661Z,30.70
2023-04-13T08:29:03.406Z,31.68
2023-04-13T08:31:32.494Z,31.64
2023-04-13T08:34:04.793Z,31.54
2023-04-13T08:36:33.435Z,31.39
2023-04-13T08:39:09.885Z,30.38
2023-04-13T08:41:44.108Z,30.93
2023-04-13T08:44:13.774Z,30.70
2023-04-13T08:46:46.690Z,30.56
2023-04-13T08:49:17.683Z,30.38
2023-04-13T08:52:08.948Z,30.37
2023-04-13T08:54:37.834Z,27.67
2023-04-13T08:57:11.367Z,26.10
2023-04-13T08:59:42.278Z,25.93
2023-04-13T09:02:11.978Z,27.30
2023-04-13T09:04:54.393Z,28.52
2023-04-13T09:07:32.383Z,29.21
2023-04-13T09:10:06.343Z,29.77
2023-04-13T09:12:34.993Z,30.61
2023-04-13T09:15:07.221Z,29.14
2023-04-13T09:17:42.093Z,26.84
2023-04-13T09:20:23.772Z,27.67
2023-04-13T09:22:52.652Z,28.09
2023-04-13T09:25:23.892Z,29.27
2023-04-13T09:27:52.621Z,29.91
2023-04-13T09:30:25.072Z,29.61
2023-04-13T09:33:06.743Z,29.51
2023-04-13T09:35:35.734Z,27.61
2023-04-13T09:38:05.207Z,26.27
2023-04-13T09:40:33.229Z,25.87
2023-04-13T09:43:06.920Z,26.12
2023-04-13T09:45:39.901Z,24.94
2023-04-13T09:48:28.511Z,25.12
2023-04-13T09:51:05.506Z,23.90
2023-04-13T09:53:49.294Z,22.58
2023-04-13T09:56:17.564Z,22.43
2023-04-13T09:58:47.457Z,21.90
2023-04-13T10:01:15.522Z,23.29
2023-04-13T10:03:44.115Z,25.27
2023-04-13T10:06:12.886Z,25.15
2023-04-13T10:08:46.344Z,24.32
2023-04-13T10:11:15.272Z,23.52
2023-04-13T10:14:00.150Z,22.99
2023-04-13T10:17:10.345Z,21.82
2023-04-13T10:19:48.718Z,21.03
2023-04-13T10:22:17.598Z,20.53
2023-04-13T10:24:45.592Z,20.19
2023-04-13T10:27:21.037Z,19.91
2023-04-13T10:29:50.114Z,19.36
2023-04-13T10:32:28.310Z,19.28
2023-04-13T10:34:56.931Z,19.05
2023-04-13T10:37:28.755Z,18.82
2023-04-13T10:40:07.982Z,18.68
2023-04-13T10:45:20.669Z,18.28
2023-04-13T10:47:48.827Z,18.39
2023-04-13T10:50:22.369Z,18.48
2023-04-13T10:53:05.844Z,18.77
2023-04-13T10:55:35.434Z,18.99
2023-04-13T10:58:14.398Z,19.40
2023-04-13T11:00:46.896Z,19.83
2023-04-13T11:03:17.560Z,20.17
2023-04-13T11:05:47.593Z,20.43
2023-04-13T11:08:20.813Z,20.48
2023-04-13T11:10:53.849Z,20.42
2023-04-13T11:13:22.350Z,20.48
2023-04-13T11:15:51.856Z,20.39
2023-04-13T11:18:27.014Z,20.29
2023-04-13T11:20:55.419Z,20.22
2023-04-13T11:23:24.541Z,20.01
2023-04-13T11:26:04.670Z,19.55
2023-04-13T11:28:43.888Z,19.47
2023-04-13T11:31:12.760Z,19.33
2023-04-13T11:33:41.248Z,19.24
2023-04-13T11:36:11.988Z,19.55
2023-04-13T11:38:42.323Z,19.87
2023-04-13T11:43:42.062Z,20.25
2023-04-13T11:46:13.875Z,20.39
2023-04-13T11:48:42.438Z,20.11
2023-04-13T11:51:11.557Z,20.15
2023-04-13T11:53:40.939Z,19.85
2023-04-13T11:56:09.218Z,19.94
2023-04-13T11:58:39.596Z,20.56
2023-04-13T12:01:14.265Z,20.41
2023-04-13T12:03:59.189Z,20.27
2023-04-13T12:06:35.436Z,20.37
2023-04-13T12:09:11.290Z,20.32
2023-04-13T12:11:48.461Z,20.52
2023-04-13T12:19:30.259Z,20.34
2023-04-13T12:22:00.378Z,20.27
2023-04-13T12:24:38.073Z,20.12
2023-04-13T12:29:41.077Z,19.63
2023-04-13T12:32:17.060Z,19.44
2023-04-13T12:34:45.351Z,19.19
2023-04-13T12:37:13.457Z,19.21
2023-04-13T12:39:43.045Z,19.02
2023-04-13T12:42:11.055Z,18.70
2023-04-13T12:44:38.691Z,19.07
2023-04-13T12:47:06.823Z,18.85
2023-04-13T12:49:34.483Z,18.98
2023-04-13T12:52:02.497Z,18.71
2023-04-13T12:54:30.905Z,18.26
2023-04-13T12:56:59.788Z,18.46
2023-04-13T12:59:27.462Z,18.76
2023-04-13T13:01:55.462Z,18.82
2023-04-13T13:04:23.122Z,18.85
2023-04-13T13:06:51.459Z,19.31
2023-04-13T13:09:19.098Z,19.52
2023-04-13T13:11:47.290Z,19.85
2023-04-13T13:14:15.175Z,19.90
2023-04-13T13:16:43.419Z,20.09
2023-04-13T13:19:11.310Z,20.20
2023-04-13T13:21:39.302Z,20.37
2023-04-13T13:24:07.612Z,20.22
2023-04-13T13:27:00.152Z,20.03
2023-04-13T13:29:24.119Z,19.69
2023-04-13T13:31:52.578Z,19.49
2023-04-13T13:34:20.655Z,19.42
2023-04-13T13:36:49.602Z,19.06
2023-04-13T13:39:18.835Z,18.52
2023-04-13T13:41:48.435Z,18.27
2023-04-13T13:44:16.741Z,18.11
2023-04-13T13:46:44.733Z,17.85
2023-04-13T13:49:12.503Z,17.92
2023-04-13T13:51:58.118Z,17.75
2023-04-13T13:54:28.541Z,17.55
2023-04-13T13:56:56.452Z,17.57
2023-04-13T13:59:24.160Z,17.34
2023-04-13T14:01:52.241Z,17.25
2023-04-13T14:04:20.168Z,17.04
2023-04-13T14:06:49.692Z,17.04
2023-04-13T14:09:18.938Z,16.87
2023-04-13T14:11:46.846Z,16.80
2023-04-13T14:14:21.364Z,16.83
2023-04-13T14:16:50.564Z,16.88
2023-04-13T14:19:20.090Z,17.03
2023-04-13T14:21:49.150Z,16.92
2023-04-13T14:24:17.296Z,17.02
2023-04-13T14:26:45.221Z,17.15
2023-04-13T14:29:13.096Z,17.04
2023-04-13T14:31:41.076Z,17.09
2023-04-13T14:34:09.262Z,16.94
2023-04-13T14:36:37.391Z,16.79
2023-04-13T14:39:05.368Z,16.74
2023-04-13T14:41:33.336Z,16.74
2023-04-13T14:44:01.105Z,16.61
2023-04-13T14:46:29.442Z,16.72
2023-04-13T14:48:57.142Z,16.65
2023-04-13T14:51:25.030Z,16.64
2023-04-13T14:53:56.379Z,16.67
2023-04-13T14:56:24.506Z,16.57
2023-04-13T14:58:52.226Z,16.45
2023-04-13T15:01:22.165Z,16.46
2023-04-13T15:03:50.621Z,16.54
2023-04-13T15:06:19.040Z,16.49
2023-04-13T15:08:47.618Z,16.37
2023-04-13T15:11:15.557Z,16.50
2023-04-13T15:13:43.287Z,16.49
2023-04-13T15:16:11.832Z,16.37
2023-04-13T15:18:39.604Z,16.50
2023-04-13T15:21:07.476Z,16.55
2023-04-13T15:23:35.266Z,16.77
2023-04-13T15:26:03.345Z,16.93
2023-04-13T15:28:31.086Z,17.03
2023-04-13T15:30:59.129Z,17.20
2023-04-13T15:33:26.829Z,17.17
2023-04-13T15:35:55.151Z,17.03
2023-04-13T15:38:22.899Z,17.04
2023-04-13T15:40:50.922Z,17.04
2023-04-13T15:43:18.655Z,17.06
2023-04-13T15:45:47.061Z,17.08
2023-04-13T15:48:15.662Z,17.06
2023-04-13T15:50:43.565Z,17.09
2023-04-13T15:53:11.292Z,17.09
2023-04-13T15:55:40.912Z,17.22
2023-04-13T15:58:09.005Z,17.01
2023-04-13T16:00:36.938Z,16.88
2023-04-13T16:03:04.900Z,16.88
2023-04-13T16:05:33.414Z,16.92
2023-04-13T16:08:01.122Z,16.71
2023-04-13T16:10:29.160Z,16.76
2023-04-13T16:12:56.936Z,16.63
2023-04-13T16:15:25.029Z,16.49
2023-04-13T16:17:57.006Z,16.22
2023-04-13T16:20:28.400Z,16.13
2023-04-13T16:22:59.390Z,16.15
2023-04-13T16:25:27.453Z,16.07
2023-04-13T16:27:56.313Z,15.87
2023-04-13T16:30:24.471Z,15.70
2023-04-13T16:32:52.226Z,15.66
2023-04-13T16:35:20.321Z,15.69
2023-04-13T16:37:54.716Z,15.60
2023-04-13T16:40:22.748Z,15.36
2023-04-13T16:42:50.823Z,15.31
2023-04-13T16:45:18.890Z,15.26
2023-04-13T16:47:46.612Z,15.14
2023-04-13T16:50:14.572Z,15.03
2023-04-13T16:52:42.296Z,14.91
2023-04-13T16:55:14.990Z,14.88
2023-04-13T16:57:43.433Z,14.78
2023-04-13T17:00:12.232Z,14.56
2023-04-13T17:02:42.003Z,14.37
2023-04-13T17:05:12.536Z,14.25
2023-04-13T17:07:42.213Z,14.25
2023-04-13T17:10:12.561Z,14.13
2023-04-13T17:12:40.777Z,13.95
2023-04-13T17:15:10.058Z,13.96
2023-04-13T17:17:38.538Z,13.74
2023-04-13T17:20:07.497Z,13.65
2023-04-13T17:22:35.217Z,13.48
2023-04-13T17:25:03.167Z,13.23
2023-04-13T17:27:31.154Z,13.11
2023-04-13T17:29:59.044Z,13.10
2023-04-13T17:32:27.366Z,12.97
2023-04-13T17:34:57.320Z,13.00
2023-04-13T17:37:24.994Z,12.97
2023-04-13T17:39:52.883Z,12.86
2023-04-13T17:42:20.799Z,12.82
2023-04-13T17:44:48.771Z,12.66
2023-04-13T17:47:17.834Z,12.70
2023-04-13T17:49:46.024Z,12.61
2023-04-13T17:52:13.655Z,12.55
2023-04-13T17:54:41.556Z,12.59
2023-04-13T17:57:09.325Z,12.55
2023-04-13T17:59:37.314Z,12.54
2023-04-13T18:02:05.030Z,12.57
2023-04-13T18:04:33.191Z,12.47
2023-04-13T18:07:01.701Z,12.43
2023-04-13T18:09:29.683Z,12.44
2023-04-13T18:11:57.416Z,12.52
2023-04-13T18:14:25.376Z,12.48
2023-04-13T18:16:53.031Z,12.47
2023-04-13T18:19:21.034Z,12.48
2023-04-13T18:21:48.697Z,12.50
2023-04-13T18:24:16.778Z,12.35
2023-04-13T18:26:44.364Z,12.29
2023-04-13T18:29:13.688Z,12.07
2023-04-13T18:31:42.194Z,12.04
2023-04-13T18:34:13.300Z,11.99
2023-04-13T18:36:42.197Z,11.99
2023-04-13T18:39:10.253Z,12.01
2023-04-13T18:41:40.213Z,11.81
2023-04-13T18:44:09.687Z,11.68
2023-04-13T18:46:37.355Z,11.49
2023-04-13T18:49:05.310Z,11.28
2023-04-13T18:51:33.364Z,11.11
2023-04-13T18:54:02.084Z,10.83
2023-04-13T18:56:29.982Z,10.66
2023-04-13T18:58:57.878Z,10.45
2023-04-13T19:01:25.630Z,10.58
2023-04-13T19:03:53.852Z,10.49
2023-04-13T19:06:21.625Z,10.89
2023-04-13T19:08:49.503Z,10.99
2023-04-13T19:11:18.500Z,11.06
2023-04-13T19:13:48.197Z,10.95
2023-04-13T19:16:15.969Z,10.76
2023-04-13T19:18:43.920Z,10.61
2023-04-13T19:21:11.565Z,10.59
2023-04-13T19:23:40.544Z,10.52
2023-04-13T19:26:08.603Z,10.56
2023-04-13T19:28:36.497Z,10.52
2023-04-13T19:31:04.260Z,10.47
2023-04-13T19:33:33.546Z,10.51
2023-04-13T19:36:01.792Z,10.50
2023-04-13T19:38:29.709Z,10.40
2023-04-13T19:40:57.817Z,10.44
2023-04-13T19:43:28.086Z,10.61
2023-04-13T19:45:56.033Z,10.73
2023-04-13T19:48:24.054Z,10.65
2023-04-13T19:50:51.765Z,10.63
2023-04-13T19:53:19.676Z,10.66
2023-04-13T19:55:47.441Z,10.51
2023-04-13T19:58:15.663Z,10.43
2023-04-13T20:00:47.507Z,10.33
2023-04-13T20:03:17.960Z,10.19
2023-04-13T20:05:45.761Z,10.16
2023-04-13T20:08:14.622Z,10.31
2023-04-13T20:10:42.313Z,10.21
2023-04-13T20:13:10.971Z,10.17
2023-04-13T20:15:39.542Z,9.93
2023-04-13T20:18:08.606Z,9.78
2023-04-13T20:20:37.574Z,9.71
2023-04-13T20:23:07.938Z,9.75
2023-04-13T20:25:37.380Z,9.88
2023-04-13T20:28:10.262Z,9.82
2023-04-13T20:30:39.216Z,9.66
2023-04-13T20:33:07.482Z,9.77
2023-04-13T20:35:35.257Z,10.01
2023-04-13T20:38:04.827Z,9.97
2023-04-13T20:40:36.148Z,9.84
2023-04-13T20:43:06.203Z,9.77
2023-04-13T20:45:36.225Z,9.90
2023-04-13T20:50:35.825Z,9.73
2023-04-13T20:53:04.895Z,9.70
2023-04-13T20:55:33.347Z,9.64
2023-04-13T20:58:01.755Z,9.64
2023-04-13T21:00:29.831Z,9.68
2023-04-13T21:02:57.917Z,9.68
2023-04-13T21:05:25.885Z,9.71
2023-04-13T21:07:55.319Z,9.65
2023-04-13T21:10:24.659Z,9.53
2023-04-13T21:12:52.577Z,9.72
2023-04-13T21:15:20.250Z,9.70
2023-04-13T21:17:49.081Z,9.72
2023-04-13T21:20:16.775Z,9.65
2023-04-13T21:22:44.706Z,9.73
2023-04-13T21:25:12.292Z,9.63
2023-04-13T21:27:40.397Z,9.52
2023-04-13T21:30:08.595Z,9.56
2023-04-13T21:32:36.670Z,9.56
2023-04-13T21:35:04.740Z,9.47
2023-04-13T21:37:32.621Z,9.33
2023-04-13T21:40:00.595Z,9.52
2023-04-13T21:42:28.564Z,9.36
2023-04-13T21:44:59.480Z,9.52
2023-04-13T21:47:27.372Z,9.39
2023-04-13T21:49:55.099Z,9.41
2023-04-13T21:52:22.973Z,9.24
2023-04-13T21:54:51.612Z,9.23
2023-04-13T21:57:19.841Z,9.43
2023-04-13T21:59:47.426Z,9.46
2023-04-13T22:02:15.969Z,9.30
2023-04-13T22:04:43.778Z,9.27
2023-04-13T22:07:12.197Z,9.18
2023-04-13T22:09:40.332Z,9.31
2023-04-13T22:12:10.811Z,9.28
2023-04-13T22:14:38.546Z,9.18
2023-04-13T22:17:06.667Z,9.14
2023-04-13T22:19:34.328Z,9.17
2023-04-13T22:22:02.235Z,9.14
2023-04-13T22:24:29.889Z,9.12
2023-04-13T22:26:57.711Z,9.19
2023-04-13T22:29:25.351Z,9.15
2023-04-13T22:31:53.467Z,9.05
2023-04-13T22:34:21.297Z,8.98
2023-04-13T22:36:49.124Z,8.94
2023-04-13T22:39:16.843Z,8.98
2023-04-13T22:41:44.672Z,8.86
2023-04-13T22:44:12.253Z,8.91
2023-04-13T22:46:40.239Z,9.12
2023-04-13T22:49:07.995Z,8.90
2023-04-13T22:51:40.329Z,8.93
2023-04-13T22:54:08.057Z,8.97
2023-04-13T22:56:36.048Z,8.80
2023-04-13T22:59:03.715Z,8.84
2023-04-13T23:01:31.737Z,8.98
2023-04-13T23:03:59.696Z,9.06
2023-04-13T23:06:27.843Z,9.03
2023-04-13T23:08:56.792Z,9.04
2023-04-13T23:11:24.834Z,9.03
2023-04-13T23:13:55.580Z,8.90
2023-04-13T23:16:23.656Z,8.85
2023-04-13T23:18:51.295Z,8.97
2023-04-13T23:21:19.182Z,8.87
2023-04-13T23:23:46.769Z,8.86
2023-04-13T23:26:14.739Z,8.72
2023-04-13T23:28:42.400Z,8.55
2023-04-13T23:31:11.005Z,8.57
2023-04-13T23:33:38.829Z,8.53
2023-04-13T23:36:07.231Z,8.59
2023-04-13T23:38:34.881Z,8.72
2023-04-13T23:41:02.768Z,8.73
2023-04-13T23:43:30.477Z,8.69
2023-04-13T23:45:59.112Z,8.61
2023-04-13T23:48:27.338Z,8.59
2023-04-13T23:50:55.409Z,8.45
2023-04-13T23:53:23.686Z,8.36
2023-04-13T23:55:51.567Z,8.24
2023-04-13T23:58:19.257Z,8.30
